Time;durP1;ratioP1;P1;durP2;ratioP2;P2;SDS_P1;SDS_P2;PMS_P1;PMS_P2;Temp;Humidity;BMP_temperature;BMP_pressure;BME280_temperature;BME280_humidity;BME280_pressure;Samples;Min_cycle;Max_cycle;Signal;HPM_P1;HPM_P2
2023/07/20 00:01:11;;;;;;;0.00;0.00;;;;;;;14.00;87.93;100496.50;4948112;28;20027;-73
2023/07/20 00:03:36;;;;;;;0.00;0.00;;;;;;;13.98;88.19;100501.47;4957822;28;20039;-74
2023/07/20 00:06:03;;;;;;;0.00;0.00;;;;;;;13.93;88.11;100487.75;4966587;28;20027;-73
2023/07/20 00:08:29;;;;;;;0.00;0.00;;;;;;;13.96;88.06;100495.44;4935952;28;20062;-75
2023/07/20 00:10:54;;;;;;;0.00;0.00;;;;;;;13.93;87.93;100496.00;4920074;28;20042;-74
2023/07/20 00:13:20;;;;;;;0.00;0.00;;;;;;;13.90;88.38;100491.06;4925940;28;20039;-72
2023/07/20 00:15:46;;;;;;;0.00;0.00;;;;;;;13.91;88.54;100495.47;4929826;28;20051;-73
2023/07/20 00:18:13;;;;;;;0.00;0.00;;;;;;;13.87;88.44;100491.66;4959223;28;20070;-73
2023/07/20 00:20:39;;;;;;;0.00;0.00;;;;;;;13.82;88.99;100484.28;4954000;28;20046;-75
2023/07/20 00:23:04;;;;;;;0.00;0.00;;;;;;;13.85;88.89;100482.88;4941578;29;21085;-72
2023/07/20 00:25:29;;;;;;;0.00;0.00;;;;;;;13.79;89.00;100485.66;4945143;28;20150;-73
2023/07/20 00:27:55;;;;;;;0.00;0.00;;;;;;;13.78;89.38;100484.03;4948814;28;20482;-72
2023/07/20 00:30:20;;;;;;;0.00;0.00;;;;;;;13.71;89.53;100479.94;4945805;28;20035;-73
2023/07/20 00:32:46;;;;;;;0.00;0.00;;;;;;;13.70;89.64;100487.38;4966514;28;20089;-73
2023/07/20 00:35:12;;;;;;;0.00;0.00;;;;;;;13.72;89.81;100485.16;4943929;28;20043;-73
2023/07/20 00:37:38;;;;;;;0.00;0.00;;;;;;;13.70;89.66;100487.38;4958228;28;20054;-74
2023/07/20 00:40:05;;;;;;;0.00;0.00;;;;;;;13.66;89.75;100483.56;4950053;28;20382;-74
2023/07/20 00:42:31;;;;;;;0.00;0.00;;;;;;;13.63;89.96;100486.88;4944380;29;20030;-73
2023/07/20 00:44:56;;;;;;;0.00;0.00;;;;;;;13.57;90.03;100482.53;4934711;28;20039;-73
2023/07/20 00:47:22;;;;;;;0.00;0.00;;;;;;;13.58;90.40;100484.16;4936366;28;20035;-73
2023/07/20 00:49:47;;;;;;;0.00;0.00;;;;;;;13.53;90.36;100478.72;4956346;28;20440;-75
2023/07/20 00:52:16;;;;;;;0.00;0.00;;;;;;;13.49;90.62;100475.72;4944277;28;20682;-73
2023/07/20 00:54:43;;;;;;;0.00;0.00;;;;;;;13.43;90.77;100466.69;4951460;28;20019;-73
2023/07/20 00:57:09;;;;;;;0.00;0.00;;;;;;;13.47;90.97;100477.09;4911840;28;20416;-74
2023/07/20 00:59:35;;;;;;;0.00;0.00;;;;;;;13.41;90.86;100477.13;4927015;28;20037;-75
2023/07/20 01:02:01;;;;;;;0.00;0.00;;;;;;;13.42;91.15;100476.03;4945385;28;20135;-74
2023/07/20 01:04:28;;;;;;;0.00;0.00;;;;;;;13.38;91.24;100474.94;4945586;28;20115;-74
2023/07/20 01:07:09;;;;;;;0.00;0.00;;;;;;;13.37;90.85;100473.28;4953316;28;20042;-74
2023/07/20 01:09:44;;;;;;;0.00;0.00;;;;;;;13.36;90.83;100482.66;4942867;28;20109;-73
2023/07/20 01:12:13;;;;;;;0.00;0.00;;;;;;;13.32;90.91;100476.06;4946039;28;20039;-73
2023/07/20 01:14:40;;;;;;;0.00;0.00;;;;;;;13.30;90.41;100467.25;4953258;28;20023;-73
2023/07/20 01:17:05;;;;;;;0.08;0.08;;;;;;;13.27;90.68;100456.84;4934318;28;20129;-73
2023/07/20 01:19:31;;;;;;;0.00;0.00;;;;;;;13.26;90.56;100460.72;4944603;28;20031;-74
2023/07/20 01:22:21;;;;;;;0.00;0.00;;;;;;;13.31;90.47;100468.91;4936964;28;20401;-74
2023/07/20 01:25:05;;;;;;;0.00;0.00;;;;;;;13.38;90.73;100460.41;4959336;28;20107;-73
2023/07/20 01:28:08;;;;;;;0.00;0.00;;;;;;;13.39;89.90;100462.03;4957210;28;20030;-74
2023/07/20 01:31:22;;;;;;;0.00;0.00;;;;;;;13.35;90.21;100464.53;4965962;28;20561;-73
2023/07/20 01:33:48;;;;;;;0.00;0.00;;;;;;;13.28;90.34;100458.50;4922319;28;20694;-73
2023/07/20 01:36:16;;;;;;;0.00;0.00;;;;;;;13.29;90.37;100457.41;4963173;28;20030;-73
2023/07/20 01:38:42;;;;;;;0.00;0.00;;;;;;;13.27;90.31;100454.09;4930368;28;20037;-73
2023/07/20 01:41:08;;;;;;;0.00;0.00;;;;;;;13.21;90.40;100456.03;4948900;28;20031;-73
2023/07/20 01:43:34;;;;;;;0.00;0.00;;;;;;;13.15;90.42;100453.63;4945325;28;20477;-74
2023/07/20 01:45:59;;;;;;;0.00;0.00;;;;;;;13.12;90.15;100465.19;4930639;28;20049;-73
2023/07/20 01:48:24;;;;;;;0.00;0.00;;;;;;;13.06;90.23;100456.94;4945901;28;20105;-74
2023/07/20 01:50:50;;;;;;;0.00;0.00;;;;;;;13.03;90.37;100460.25;4939172;28;20038;-73
2023/07/20 01:53:15;;;;;;;0.00;0.00;;;;;;;12.96;90.25;100454.25;4933062;28;20071;-72
2023/07/20 01:55:41;;;;;;;0.00;0.00;;;;;;;12.88;90.72;100449.38;4914778;29;20044;-74
2023/07/20 01:58:06;;;;;;;0.00;0.00;;;;;;;12.89;90.54;100461.97;4909237;29;20031;-73
2023/07/20 02:00:32;;;;;;;0.00;0.00;;;;;;;12.84;90.76;100456.50;4945034;29;20040;-72
2023/07/20 02:02:57;;;;;;;0.00;0.00;;;;;;;12.80;90.56;100458.16;4927384;29;20039;-72
2023/07/20 02:05:22;;;;;;;0.00;0.00;;;;;;;12.75;90.63;100450.78;4925772;29;20039;-72
2023/07/20 02:07:48;;;;;;;0.00;0.00;;;;;;;12.74;90.58;100460.91;4941759;29;20034;-73
2023/07/20 02:10:13;;;;;;;0.00;0.00;;;;;;;12.69;90.18;100452.72;4928095;29;20063;-72
2023/07/20 02:12:39;;;;;;;0.00;0.00;;;;;;;12.68;90.38;100461.22;4923243;29;20035;-72
2023/07/20 02:15:05;;;;;;;0.00;0.00;;;;;;;12.67;90.24;100460.38;4930606;29;20043;-72
2023/07/20 02:17:30;;;;;;;0.00;0.00;;;;;;;12.60;90.27;100451.66;4942419;29;20041;-72
2023/07/20 02:19:57;;;;;;;0.00;0.00;;;;;;;12.58;90.18;100448.34;4943262;29;20066;-72
2023/07/20 02:22:23;;;;;;;0.00;0.00;;;;;;;12.58;90.74;100448.34;4946644;29;20028;-73
2023/07/20 02:24:49;;;;;;;0.00;0.00;;;;;;;12.55;89.98;100443.44;4928770;29;20035;-72
2023/07/20 02:27:14;;;;;;;0.00;0.00;;;;;;;12.51;90.34;100453.31;4931243;29;20145;-73
2023/07/20 02:29:41;;;;;;;0.00;0.00;;;;;;;12.48;90.29;100446.47;4944399;29;20055;-74
2023/07/20 02:32:07;;;;;;;0.00;0.00;;;;;;;12.47;90.46;100449.47;4949878;28;20486;-72
2023/07/20 02:34:33;;;;;;;0.00;0.00;;;;;;;12.44;90.16;100447.28;4938384;29;20036;-72
2023/07/20 02:37:00;;;;;;;0.00;0.00;;;;;;;12.44;90.37;100447.28;4939503;29;20501;-72
2023/07/20 02:39:31;;;;;;;0.00;0.00;;;;;;;12.39;90.09;100446.19;4943576;29;20528;-71
2023/07/20 02:41:57;;;;;;;0.00;0.00;;;;;;;12.37;90.14;100451.16;4924279;29;20035;-72
2023/07/20 02:44:23;;;;;;;0.00;0.00;;;;;;;12.36;90.11;100444.03;4935286;29;20042;-72
2023/07/20 02:46:49;;;;;;;0.00;0.00;;;;;;;12.32;90.20;100448.41;4928516;29;20115;-72
2023/07/20 02:49:15;;;;;;;0.00;0.00;;;;;;;12.23;89.46;100436.38;4927529;29;20039;-72
2023/07/20 02:51:41;;;;;;;0.00;0.00;;;;;;;12.23;90.08;100450.09;4947517;29;20114;-73
2023/07/20 02:54:08;;;;;;;0.00;0.00;;;;;;;12.21;90.15;100446.81;4926948;29;20126;-72
2023/07/20 02:56:33;;;;;;;0.00;0.00;;;;;;;12.17;89.54;100451.19;4941933;29;20158;-73
2023/07/20 02:58:58;;;;;;;0.00;0.00;;;;;;;12.10;89.55;100445.16;4944415;29;20039;-72
2023/07/20 03:01:24;;;;;;;0.00;0.00;;;;;;;12.09;90.31;100454.47;4952837;29;20035;-72
2023/07/20 03:03:49;;;;;;;0.00;0.00;;;;;;;12.07;89.64;100452.00;4931713;29;20051;-72
2023/07/20 03:06:16;;;;;;;0.00;0.00;;;;;;;12.03;90.23;100451.75;4930512;29;20122;-72
2023/07/20 03:08:47;;;;;;;0.00;0.00;;;;;;;11.98;89.64;100448.19;4944775;29;20031;-72
2023/07/20 03:11:14;;;;;;;0.00;0.00;;;;;;;11.93;89.56;100446.28;4938731;29;20785;-73
2023/07/20 03:13:40;;;;;;;0.00;0.00;;;;;;;11.90;89.78;100449.53;4941195;29;20028;-72
2023/07/20 03:16:11;;;;;;;0.00;0.00;;;;;;;11.92;90.19;100452.81;4936092;29;20044;-73
2023/07/20 03:18:39;;;;;;;0.00;0.00;;;;;;;11.87;89.58;100447.31;4943720;29;20134;-72
2023/07/20 03:21:07;;;;;;;0.00;0.00;;;;;;;11.87;89.67;100448.16;4936056;29;20106;-73
2023/07/20 03:23:32;;;;;;;0.00;0.00;;;;;;;11.88;89.08;100448.97;4944514;29;20516;-72
2023/07/20 03:25:58;;;;;;;0.00;0.00;;;;;;;11.85;89.48;100452.28;4950682;29;20126;-71
2023/07/20 03:28:23;;;;;;;0.00;0.00;;;;;;;11.85;88.99;100457.75;4928847;29;20028;-71
2023/07/20 03:30:56;;;;;;;0.00;0.00;;;;;;;11.80;89.83;100452.28;4946065;29;20030;-71
2023/07/20 03:33:26;;;;;;;0.00;0.00;;;;;;;11.77;89.28;100458.28;4943740;29;20031;-72
2023/07/20 03:35:51;;;;;;;0.00;0.00;;;;;;;11.72;89.44;100450.88;4946426;29;20115;-72
2023/07/20 03:38:18;;;;;;;0.00;0.00;;;;;;;11.70;89.11;100451.16;4935816;29;20111;-71
2023/07/20 03:40:57;;;;;;;0.00;0.00;;;;;;;11.66;89.49;100452.78;4938686;29;20024;-72
2023/07/20 03:43:24;;;;;;;0.00;0.00;;;;;;;11.59;89.58;100452.25;4949414;28;20038;-71
2023/07/20 03:45:51;;;;;;;0.00;0.00;;;;;;;11.54;89.84;100455.00;4952667;28;20031;-71
2023/07/20 03:48:18;;;;;;;0.00;0.00;;;;;;;11.48;89.84;100447.88;4944825;29;20047;-73
2023/07/20 03:50:48;;;;;;;0.00;0.00;;;;;;;11.45;90.08;100440.19;4916124;29;20027;-72
2023/07/20 03:53:14;;;;;;;0.00;0.00;;;;;;;11.41;89.62;100450.84;4942720;29;20666;-72
2023/07/20 03:55:49;;;;;;;0.00;0.00;;;;;;;11.39;89.57;100446.72;4944302;28;20074;-73
2023/07/20 03:58:15;;;;;;;0.00;0.00;;;;;;;11.35;89.04;100444.53;4949560;28;20051;-73
2023/07/20 04:00:48;;;;;;;0.00;0.00;;;;;;;11.35;89.15;100450.00;4930335;29;20023;-71
2023/07/20 04:03:14;;;;;;;0.00;0.00;;;;;;;11.34;89.71;100453.03;4936458;29;20027;-72
2023/07/20 04:05:40;;;;;;;0.00;0.00;;;;;;;11.36;89.76;100456.34;4944246;28;20029;-71
2023/07/20 04:08:06;;;;;;;0.00;0.00;;;;;;;11.34;89.60;100455.75;4943362;29;20816;-72
2023/07/20 04:10:31;;;;;;;0.00;0.00;;;;;;;11.33;89.71;100454.13;4941268;29;20047;-73
2023/07/20 04:12:56;;;;;;;0.00;0.00;;;;;;;11.40;89.15;100453.88;4940699;29;20043;-73
2023/07/20 04:15:22;;;;;;;0.00;0.00;;;;;;;11.43;89.03;100458.78;4942298;29;20132;-73
2023/07/20 04:17:47;;;;;;;0.00;0.00;;;;;;;11.43;89.04;100448.66;4939908;29;20035;-72
2023/07/20 04:20:13;;;;;;;0.00;0.00;;;;;;;11.44;89.11;100455.78;4932104;29;20043;-73
2023/07/20 04:22:38;;;;;;;0.00;0.00;;;;;;;11.46;89.43;100455.50;4928341;29;20032;-72
2023/07/20 04:25:04;;;;;;;0.00;0.00;;;;;;;11.48;89.11;100454.16;4935807;29;20435;-72
2023/07/20 04:27:30;;;;;;;0.00;0.00;;;;;;;11.52;89.56;100451.69;4940192;29;20144;-72
2023/07/20 04:29:58;;;;;;;0.00;0.00;;;;;;;11.52;89.06;100448.94;4941572;29;20042;-72
2023/07/20 04:32:25;;;;;;;0.00;0.00;;;;;;;11.54;89.11;100449.50;4935183;28;20035;-72
2023/07/20 04:34:50;;;;;;;0.00;0.00;;;;;;;11.52;89.57;100447.03;4941460;29;20032;-73
2023/07/20 04:37:15;;;;;;;0.00;0.00;;;;;;;11.54;89.28;100446.78;4917140;29;20038;-73
2023/07/20 04:39:41;;;;;;;0.00;0.00;;;;;;;11.57;89.47;100446.22;4925087;29;20122;-74
2023/07/20 04:42:06;;;;;;;0.00;0.00;;;;;;;11.59;88.90;100448.69;4943052;29;20031;-73
2023/07/20 04:44:32;;;;;;;0.00;0.00;;;;;;;11.60;89.09;100450.34;4933420;28;20106;-72
2023/07/20 04:46:57;;;;;;;0.00;0.00;;;;;;;11.66;88.57;100441.03;4933988;29;20122;-71
2023/07/20 04:49:22;;;;;;;0.00;0.00;;;;;;;11.63;88.86;100436.91;4948761;29;20035;-72
2023/07/20 04:51:48;;;;;;;0.00;0.00;;;;;;;11.69;89.03;100441.28;4923699;29;20131;-73
2023/07/20 04:54:13;;;;;;;0.00;0.00;;;;;;;11.67;88.10;100432.53;4936866;29;20060;-73
2023/07/20 04:56:39;;;;;;;0.00;0.00;;;;;;;11.70;88.57;100440.22;4946421;28;20528;-73
2023/07/20 04:59:04;;;;;;;0.00;0.00;;;;;;;11.74;88.20;100435.03;4941121;29;20494;-72
2023/07/20 05:01:30;;;;;;;0.00;0.00;;;;;;;11.79;87.71;100439.66;4939474;29;20551;-74
2023/07/20 05:03:55;;;;;;;0.00;0.00;;;;;;;11.82;87.80;100439.13;4944047;29;20149;-74
2023/07/20 05:06:21;;;;;;;0.00;0.00;;;;;;;11.85;86.88;100435.81;4944885;29;20031;-74
2023/07/20 05:08:46;;;;;;;0.00;0.00;;;;;;;11.96;86.71;100439.41;4918724;29;20020;-73
2023/07/20 05:11:12;;;;;;;0.00;0.00;;;;;;;12.01;86.37;100445.72;4919977;29;20040;-73
2023/07/20 05:13:37;;;;;;;0.00;0.00;;;;;;;12.07;86.26;100448.47;4941152;29;20031;-73
2023/07/20 05:16:03;;;;;;;0.00;0.00;;;;;;;12.08;86.27;100447.38;4944242;28;20039;-73
2023/07/20 05:18:28;;;;;;;0.00;0.00;;;;;;;12.13;85.70;100447.34;4934119;29;20066;-73
2023/07/20 05:20:57;;;;;;;0.00;0.00;;;;;;;12.15;85.56;100447.88;4945931;29;20019;-74
2023/07/20 05:23:22;;;;;;;0.00;0.00;;;;;;;12.14;85.81;100451.75;4939354;29;20031;-74
2023/07/20 05:26:12;;;;;;;0.00;0.00;;;;;;;12.16;85.26;100446.81;4939104;29;20035;-72
2023/07/20 05:28:37;;;;;;;0.00;0.00;;;;;;;12.20;84.93;100456.13;4942142;29;20023;-73
2023/07/20 05:31:03;;;;;;;0.00;0.00;;;;;;;12.26;84.97;100460.50;4949836;29;20090;-73
2023/07/20 05:33:28;;;;;;;0.00;0.00;;;;;;;12.27;84.59;100450.38;4944179;29;20032;-72
2023/07/20 05:35:54;;;;;;;0.00;0.00;;;;;;;12.32;84.66;100462.13;4948755;29;20028;-73
2023/07/20 05:38:20;;;;;;;0.00;0.00;;;;;;;12.36;84.46;100465.16;4940039;29;20046;-72
2023/07/20 05:40:45;;;;;;;0.00;0.00;;;;;;;12.37;84.56;100455.84;4925618;29;20019;-73
2023/07/20 05:43:11;;;;;;;0.00;0.00;;;;;;;12.44;84.31;100466.50;4933682;29;20032;-72
2023/07/20 05:45:37;;;;;;;0.00;0.00;;;;;;;12.46;84.50;100454.16;4934021;29;20134;-73
2023/07/20 05:48:02;;;;;;;0.00;0.00;;;;;;;12.54;83.98;100459.09;4941776;29;20062;-72
2023/07/20 05:50:28;;;;;;;0.00;0.00;;;;;;;12.64;83.75;100460.16;4936465;28;20044;-71
2023/07/20 05:52:54;;;;;;;0.00;0.00;;;;;;;12.71;83.51;100453.25;4945761;29;20038;-71
2023/07/20 05:55:19;;;;;;;0.00;0.00;;;;;;;12.86;83.67;100457.03;4942372;28;20043;-71
2023/07/20 05:57:48;;;;;;;0.00;0.00;;;;;;;12.98;82.82;100463.03;4961604;28;20062;-72
2023/07/20 06:00:14;;;;;;;0.00;0.00;;;;;;;13.08;82.94;100453.91;4958477;28;20482;-72
2023/07/20 06:02:40;;;;;;;0.00;0.00;;;;;;;13.24;81.98;100458.25;4946866;28;20046;-74
2023/07/20 06:05:09;;;;;;;0.00;0.00;;;;;;;13.33;82.05;100450.25;4934817;28;20034;-71
2023/07/20 06:07:36;;;;;;;0.00;0.00;;;;;;;13.46;81.57;100453.47;4920623;28;20054;-72
2023/07/20 06:10:02;;;;;;;0.00;0.00;;;;;;;13.58;81.11;100456.69;4945602;28;20485;-71
2023/07/20 06:12:27;;;;;;;0.00;0.00;;;;;;;13.68;80.87;100453.88;4963951;28;20109;-71
2023/07/20 06:14:53;;;;;;;0.00;0.00;;;;;;;13.73;80.42;100456.56;4955822;28;20425;-71
2023/07/20 06:17:19;;;;;;;0.00;0.00;;;;;;;13.75;80.22;100451.59;4926942;28;20444;-71
2023/07/20 06:19:44;;;;;;;0.00;0.00;;;;;;;13.76;80.05;100453.25;4966069;28;20034;-70
2023/07/20 06:22:09;;;;;;;0.00;0.00;;;;;;;13.75;79.87;100446.09;4929897;28;20079;-71
2023/07/20 06:24:35;;;;;;;0.00;0.00;;;;;;;13.79;79.97;100451.88;4960298;28;20027;-71
2023/07/20 06:27:00;;;;;;;0.00;0.00;;;;;;;13.85;80.08;100450.72;4924689;28;20039;-71
2023/07/20 06:29:26;;;;;;;0.00;0.00;;;;;;;13.98;79.95;100454.72;4946528;28;20334;-72
2023/07/20 06:31:51;;;;;;;0.00;0.00;;;;;;;14.12;79.28;100450.22;4943425;28;20381;-71
2023/07/20 06:34:17;;;;;;;0.00;0.00;;;;;;;14.26;79.03;100460.53;4948962;28;20069;-71
2023/07/20 06:36:42;;;;;;;0.00;0.00;;;;;;;14.36;78.50;100449.44;4934179;28;20027;-72
2023/07/20 06:39:07;;;;;;;0.00;0.00;;;;;;;14.45;78.43;100447.66;4932729;28;20039;-71
2023/07/20 06:41:33;;;;;;;0.00;0.00;;;;;;;14.54;78.08;100449.78;4962445;28;20034;-72
2023/07/20 06:43:58;;;;;;;0.00;0.00;;;;;;;14.71;77.87;100455.69;4933335;28;20715;-71
2023/07/20 06:46:25;;;;;;;0.00;0.00;;;;;;;14.89;77.36;100461.53;4947454;28;20031;-71
2023/07/20 06:48:51;;;;;;;0.00;0.00;;;;;;;14.96;77.03;100457.28;4965902;28;20448;-75
2023/07/20 06:51:17;;;;;;;0.00;0.00;;;;;;;15.03;76.48;100456.13;4935959;28;20035;-75
2023/07/20 06:53:42;;;;;;;0.00;0.00;;;;;;;15.11;76.52;100459.06;4952066;28;20475;-76
2023/07/20 06:56:11;;;;;;;0.00;0.00;;;;;;;15.08;76.35;100434.84;4948690;29;20055;-77
2023/07/20 06:58:36;;;;;;;0.00;0.00;;;;;;;15.05;75.63;100434.63;4945965;29;20035;-74
2023/07/20 07:01:08;;;;;;;0.00;0.00;;;;;;;15.13;75.70;100456.00;4946571;29;20019;-75
2023/07/20 07:03:34;;;;;;;0.00;0.00;;;;;;;15.15;75.54;100443.56;4944480;29;20024;-74
2023/07/20 07:05:59;;;;;;;0.00;0.00;;;;;;;15.36;74.98;100457.88;4948586;28;20045;-73
2023/07/20 07:08:25;;;;;;;0.00;0.00;;;;;;;15.48;74.67;100451.13;4947712;29;20119;-75
2023/07/20 07:10:52;;;;;;;0.00;0.00;;;;;;;15.64;73.75;100454.47;4964500;28;20733;-74
2023/07/20 07:13:19;;;;;;;0.00;0.00;;;;;;;15.71;73.28;100433.66;4950321;28;20379;-74
2023/07/20 07:15:45;;;;;;;0.00;0.00;;;;;;;15.99;72.67;100455.00;4947896;28;20118;-74
2023/07/20 07:18:10;;;;;;;0.00;0.00;;;;;;;16.01;72.16;100436.22;4933397;29;20404;-75
2023/07/20 07:20:36;;;;;;;0.00;0.00;;;;;;;16.25;71.70;100446.28;4949507;28;20027;-74
2023/07/20 07:23:01;;;;;;;0.00;0.00;;;;;;;16.42;71.31;100451.22;4920094;29;20106;-74
2023/07/20 07:25:27;;;;;;;0.00;0.00;;;;;;;16.55;70.77;100450.44;4933248;29;20023;-74
2023/07/20 07:27:53;;;;;;;0.00;0.00;;;;;;;16.63;69.98;100457.16;4927538;29;20029;-74
2023/07/20 07:30:18;;;;;;;0.00;0.00;;;;;;;16.60;68.91;100460.53;4950571;29;20477;-75
2023/07/20 07:32:44;;;;;;;0.00;0.00;;;;;;;16.60;68.44;100457.78;4947522;29;20027;-74
2023/07/20 07:35:09;;;;;;;0.00;0.00;;;;;;;16.70;68.33;100452.06;4915213;29;20059;-74
2023/07/20 07:37:35;;;;;;;0.00;0.00;;;;;;;16.86;68.01;100452.56;4930779;29;20035;-74
2023/07/20 07:40:03;;;;;;;0.00;0.00;;;;;;;16.98;68.19;100452.91;4932534;29;20039;-73
2023/07/20 07:42:34;;;;;;;0.00;0.00;;;;;;;17.14;67.89;100452.56;4937948;29;20027;-75
2023/07/20 07:48:03;;;;;;;;;;;;;;;;;;;;;
2023/07/20 07:50:29;;;;;;;0.00;0.00;;;;;;;17.14;66.65;100411.13;4952508;29;20020;-75
2023/07/20 07:53:32;;;;;;;;;;;;;;;;;;;;;
2023/07/20 07:56:08;;;;;;;0.00;0.00;;;;;;;17.60;65.71;100421.94;4935574;28;20502;-75
2023/07/20 07:58:43;;;;;;;0.00;0.00;;;;;;;17.85;65.43;100430.72;4946994;29;20069;-75
2023/07/20 08:01:48;;;;;;;0.00;0.00;;;;;;;17.83;65.00;100416.41;4949871;29;20019;-76
2023/07/20 08:04:13;;;;;;;;;;;;;;;18.19;64.56;100440.41;4947252;28;21297;-74
2023/07/20 08:06:39;;;;;;;0.00;0.00;;;;;;;18.20;64.04;100414.38;4951388;29;20428;-74
2023/07/20 08:09:05;;;;;;;0.00;0.00;;;;;;;18.39;64.17;100432.69;4941575;29;20063;-75
2023/07/20 08:11:32;;;;;;;0.00;0.00;;;;;;;18.70;63.65;100440.97;4919769;29;20082;-75
2023/07/20 08:14:01;;;;;;;0.00;0.00;;;;;;;18.86;62.99;100441.38;4936775;29;20101;-74
2023/07/20 08:16:27;;;;;;;0.00;0.00;;;;;;;18.89;62.04;100435.19;4935088;29;20063;-75
2023/07/20 08:18:53;;;;;;;0.00;0.00;;;;;;;18.88;60.74;100439.09;4936179;29;20493;-75
2023/07/20 08:21:18;;;;;;;0.00;0.00;;;;;;;18.81;59.81;100433.19;4931408;29;20091;-75
2023/07/20 08:23:44;;;;;;;0.00;0.00;;;;;;;18.87;59.78;100437.47;4934799;29;20038;-76
2023/07/20 08:26:09;;;;;;;0.00;0.00;;;;;;;19.02;59.33;100441.72;4923390;29;20040;-75
2023/07/20 08:28:35;;;;;;;0.00;0.00;;;;;;;19.12;59.49;100432.31;4939883;29;20023;-74
2023/07/20 08:31:00;;;;;;;0.00;0.00;;;;;;;19.23;58.72;100436.41;4951568;29;20385;-75
2023/07/20 08:33:29;;;;;;;0.00;0.00;;;;;;;19.13;57.58;100436.72;4944402;28;20028;-74
2023/07/20 08:35:55;;;;;;;0.00;0.00;;;;;;;18.86;56.45;100435.81;4940385;29;20023;-75
2023/07/20 08:38:20;;;;;;;0.00;0.00;;;;;;;18.83;57.17;100430.91;4918801;29;20317;-75
2023/07/20 08:40:46;;;;;;;0.00;0.00;;;;;;;18.92;57.28;100412.38;4909404;29;20034;-74
2023/07/20 08:43:13;;;;;;;0.00;0.00;;;;;;;19.27;57.43;100434.59;4941542;28;20385;-75
2023/07/20 08:45:41;;;;;;;0.00;0.00;;;;;;;19.36;56.27;100432.66;4930108;29;20039;-75
2023/07/20 08:48:07;;;;;;;0.00;0.00;;;;;;;19.44;56.51;100421.91;4932983;29;20531;-74
2023/07/20 08:50:34;;;;;;;0.00;0.00;;;;;;;19.69;56.65;100434.94;4949744;29;20117;-75
2023/07/20 08:53:00;;;;;;;0.00;0.00;;;;;;;19.90;56.23;100434.28;4919101;29;20115;-75
2023/07/20 08:55:32;;;;;;;0.00;0.00;;;;;;;20.11;56.07;100433.63;4947365;28;20027;-75
2023/07/20 08:58:00;;;;;;;0.00;0.00;;;;;;;20.21;54.69;100430.47;4960100;28;20098;-75
2023/07/20 09:00:29;;;;;;;0.00;0.00;;;;;;;19.97;52.66;100423.50;4967276;28;20469;-75
2023/07/20 09:02:55;;;;;;;0.00;0.00;;;;;;;19.95;52.96;100425.00;4945301;29;20035;-76
2023/07/20 09:05:23;;;;;;;0.00;0.00;;;;;;;20.28;53.22;100421.63;4943464;28;20031;-74
2023/07/20 09:07:49;;;;;;;0.00;0.00;;;;;;;20.76;53.28;100426.00;4954944;28;20093;-74
2023/07/20 09:10:14;;;;;;;0.00;0.00;;;;;;;21.19;52.79;100430.50;4951107;28;20046;-75
2023/07/20 09:12:43;;;;;;;0.00;0.00;;;;;;;21.58;51.58;100427.59;4923173;28;20039;-75
2023/07/20 09:15:13;;;;;;;0.00;0.00;;;;;;;21.95;50.54;100427.75;4933364;28;20394;-76
2023/07/20 09:17:39;;;;;;;0.00;0.00;;;;;;;22.20;48.70;100430.63;4951359;28;20042;-75
2023/07/20 09:20:11;;;;;;;0.00;0.00;;;;;;;22.51;48.25;100415.38;4948770;28;20022;-75
2023/07/20 09:22:40;;;;;;;0.00;0.00;;;;;;;22.90;47.26;100418.63;4965424;28;20033;-75
2023/07/20 09:25:26;;;;;;;0.00;0.00;;;;;;;23.12;43.90;100431.28;4935378;28;20069;-75
2023/07/20 09:27:52;;;;;;;0.00;0.00;;;;;;;23.33;44.42;100431.09;4935702;29;20062;-75
2023/07/20 09:30:17;;;;;;;0.00;0.00;;;;;;;23.57;44.64;100412.66;4948206;29;20470;-74
2023/07/20 09:32:47;;;;;;;0.00;0.00;;;;;;;23.65;43.24;100415.28;4946138;28;20026;-75
2023/07/20 09:35:16;;;;;;;0.00;0.00;;;;;;;23.66;43.65;100421.72;4954726;28;20034;-74
2023/07/20 09:37:58;;;;;;;0.00;0.00;;;;;;;23.60;42.13;100417.56;4948392;29;20038;-75
2023/07/20 09:40:25;;;;;;;0.00;0.00;;;;;;;23.23;40.87;100415.69;4941968;28;20029;-74
2023/07/20 09:42:53;;;;;;;0.00;0.00;;;;;;;22.73;41.22;100412.09;4940889;28;20138;-74
2023/07/20 09:45:19;;;;;;;0.00;0.00;;;;;;;22.67;41.78;100421.88;4946195;28;20031;-75
2023/07/20 09:47:45;;;;;;;0.00;0.00;;;;;;;22.87;42.68;100405.34;4922604;28;20105;-74
2023/07/20 09:50:11;;;;;;;0.00;0.00;;;;;;;23.16;43.21;100418.25;4937970;28;20186;-74
2023/07/20 09:52:41;;;;;;;0.00;0.00;;;;;;;23.37;43.41;100417.28;4959745;28;20118;-75
2023/07/20 09:55:08;;;;;;;0.00;0.00;;;;;;;23.52;43.09;100408.97;4953969;28;20026;-76
2023/07/20 09:57:35;;;;;;;0.00;0.00;;;;;;;24.06;42.38;100401.28;4939747;28;20134;-73
2023/07/20 10:00:07;;;;;;;0.00;0.00;;;;;;;25.41;40.32;100423.72;4951503;29;20098;-74
2023/07/20 10:02:34;;;;;;;0.00;0.00;;;;;;;28.30;35.40;100412.94;4935955;28;20470;-75
2023/07/20 10:05:04;;;;;;;0.00;0.00;;;;;;;31.99;30.33;100420.84;4919986;28;20035;-74
2023/07/20 10:07:30;;;;;;;0.00;0.00;;;;;;;33.99;27.15;100405.06;4948555;28;20525;-74
2023/07/20 10:10:01;;;;;;;0.00;0.00;;;;;;;32.16;29.07;100408.66;4920391;28;20035;-75
2023/07/20 10:12:28;;;;;;;0.00;0.00;;;;;;;31.88;26.67;100408.81;4954563;28;20423;-75
2023/07/20 10:15:27;;;;;;;0.00;0.00;;;;;;;31.57;27.57;100411.41;4952426;28;20027;-73
2023/07/20 10:18:16;;;;;;;0.00;0.00;;;;;;;30.58;28.06;100414.84;4952970;28;20043;-74
2023/07/20 10:20:42;;;;;;;0.00;0.00;;;;;;;28.67;29.45;100405.66;4965175;28;20034;-73
2023/07/20 10:23:08;;;;;;;0.00;0.00;;;;;;;27.37;30.75;100411.91;4927625;28;20043;-73
2023/07/20 10:25:37;;;;;;;0.00;0.00;;;;;;;26.46;31.72;100398.50;4950455;29;20030;-75
2023/07/20 10:28:06;;;;;;;0.00;0.00;;;;;;;26.53;32.33;100401.41;4935634;28;20772;-74
2023/07/20 10:30:34;;;;;;;0.00;0.00;;;;;;;26.40;33.54;100416.81;4953351;28;20046;-73
2023/07/20 10:33:02;;;;;;;0.00;0.00;;;;;;;26.49;34.19;100397.75;4952432;28;20042;-73
2023/07/20 10:35:28;;;;;;;0.00;0.00;;;;;;;26.96;33.10;100407.72;4927369;28;20123;-74
2023/07/20 10:37:55;;;;;;;0.00;0.00;;;;;;;27.57;31.20;100392.88;4940754;28;20083;-75
2023/07/20 10:40:31;;;;;;;0.00;0.00;;;;;;;28.08;30.39;100394.25;4951788;28;20389;-74
2023/07/20 10:42:59;;;;;;;0.00;0.00;;;;;;;28.98;30.97;100378.91;4956864;28;20023;-74
2023/07/20 10:45:35;;;;;;;0.00;0.00;;;;;;;30.19;30.31;100382.56;4948550;28;20046;-73
2023/07/20 10:48:05;;;;;;;0.00;0.00;;;;;;;31.84;28.77;100401.16;4941738;28;20823;-77
2023/07/20 10:50:33;;;;;;;0.00;0.00;;;;;;;30.78;27.79;100392.63;4944950;28;20385;-72
2023/07/20 10:53:15;;;;;;;0.00;0.00;;;;;;;30.16;29.22;100388.22;4947870;28;20374;-72
2023/07/20 10:55:41;;;;;;;0.00;0.00;;;;;;;32.51;27.11;100386.94;4953670;28;20074;-73
2023/07/20 10:58:15;;;;;;;0.00;0.00;;;;;;;33.60;26.50;100388.59;4948503;29;20035;-73
2023/07/20 11:01:04;;;;;;;0.00;0.00;;;;;;;31.85;26.61;100401.97;4932915;28;20027;-74
2023/07/20 11:03:34;;;;;;;0.00;0.00;;;;;;;30.15;27.96;100392.22;4959806;28;20023;-73
2023/07/20 11:05:59;;;;;;;0.00;0.00;;;;;;;29.51;28.50;100388.84;4948915;28;20117;-73
2023/07/20 11:08:41;;;;;;;0.00;0.00;;;;;;;29.00;28.29;100390.59;4956255;28;20430;-74
2023/07/20 11:11:26;;;;;;;0.00;0.00;;;;;;;28.67;28.56;100386.75;4963175;28;20062;-73
2023/07/20 11:14:03;;;;;;;0.00;0.00;;;;;;;33.12;26.02;100385.53;4948410;28;20023;-74
2023/07/20 11:16:35;;;;;;;0.00;0.00;;;;;;;37.53;21.91;100389.59;4951748;29;20029;-74
2023/07/20 11:19:00;;;;;;;0.00;0.00;;;;;;;;;;4953549;28;20031;-73
2023/07/20 11:21:25;;;;;;;0.00;0.00;;;;;;;;;;4973549;28;20480;-74
2023/07/20 11:23:53;;;;;;;0.00;0.00;;;;;;;36.49;nan;100376.16;4945537;29;20035;-74
2023/07/20 11:26:19;;;;;;;0.00;0.00;;;;;;;36.37;nan;100376.88;4967156;28;20023;-73
2023/07/20 11:28:51;;;;;;;0.00;0.00;;;;;;;33.64;nan;100372.34;4946292;29;20042;-74
2023/07/20 11:31:18;;;;;;;0.00;0.00;;;;;;;32.59;nan;100364.25;4956712;28;20548;-73
2023/07/20 11:33:43;;;;;;;0.00;0.00;;;;;;;37.13;nan;100375.66;4973127;28;20026;-73
2023/07/20 11:36:09;;;;;;;0.00;0.00;;;;;;;41.37;nan;100378.28;4955516;28;20030;-74